Flight Number: AVA6089 Duration: 2:00
Departure: Ashgabat (UTAA) at 21:30 Distance: 780 Nm
Arrival: Dubai Intl Airport (OMDB) at 23:30 Equipment: A321

Weather Information
Ashgabat, Turkmenistan (UTAA) 37-59N 058-22E Feb 27, 2024 - 10:00 AM EST / 2024.02.27 1500 UTC
Wind: from the N (360 degrees) at 5 MPH (4 KT):0
Visibility: greater than 7 mile(s):0
Sky conditions: mostly cloudy Temperature: 37 F (3 C) Dew Point: 17 F (-8 C) Relative Humidity: 44% Pressure (altimeter): 30.42 in. Hg (1030 hPa)
ob: UTAA 271500Z 36004KT 9999 SCT033 BKN083 03/M08 Q1030 R88/CLRD70 NOSIG cycle: 15
Sunrise: 02:44 Sunset: 13:54 (UTC)

Dubai International Airport, United Arab Emirates (OMDB) 25-15N 055-20E 5M Feb 27, 2024 - 10:00 AM EST / 2024.02.27 1500 UTC
Wind: from the NW (320 degrees) at 9 MPH (8 KT):0
Visibility: greater than 7 mile(s):0 Temperature: 71 F (22 C) Dew Point: 53 F (12 C) Relative Humidity: 53% Pressure (altimeter): 29.91 in. Hg (1013 hPa)
ob: OMDB 271500Z 32008KT CAVOK 22/12 Q1013 NOSIG cycle: 15
Sunrise: 02:45 Sunset: 14:16 (UTC)

TAF:2024/02/27 12:06 TAF OMDB 271100Z 2712/2818 30010KT 8000 FEW035 BECMG 2716/2718 16005KT PROB30 2802/2805 4000 HZ BECMG 2807/2809 34012KT BECMG 2816/2818 04005KT

This route has never been flown.

Route map